X  Κλείσε Στοιχεία αεροπορικών μετεωρολογικών δεδομένων METAR     EHKD De Kooy Airport
θερμοκρασία
43°F θερμοκρασία
36°F Σημείο δρόσου
76% Υγρασία



Ανεμος
25 MPH
40 KM/H
11 M/S
22 KTS



240°
DND
Τρέχουσες συνθήκες

Μερικώς συννεφιασμένος Μερικώς συννεφιασμένος
πίεση 984.08 (hPa) - 29.06 (inHg)
Ορατότητα 6 (μίλι) - 9.7 (km)
Aεροδρόμιο
Κωδικός αεροδρομίου EHKD

Τοποθεσία: De Kooy Airport
Απόσταση: 34 (mi)

Metar:
EHKD 230316Z AUTO 24022G32KT 210V270 9999 FEW022 BKN027 BKN031 06/02 Q0984 BLU

ώρα: 23-02-2024 04:16 CET